Time;durP1;ratioP1;P1;durP2;ratioP2;P2;SDS_P1;SDS_P2;PMS_P1;PMS_P2;Temp;Humidity;BMP_temperature;BMP_pressure;BME280_temperature;BME280_humidity;BME280_pressure;Samples;Min_cycle;Max_cycle;Signal;HPM_P1;HPM_P2
2021/11/04 00:02:16;;;;;;;5.03;3.20;;;8.20;99.90;;;;;;5091481;28;20048;-81
2021/11/04 00:04:42;;;;;;;5.93;3.00;;;8.20;99.90;;;;;;5091501;28;20052;-81
2021/11/04 00:07:12;;;;;;;10.35;3.60;;;8.10;99.90;;;;;;5091731;28;20407;-84
2021/11/04 00:09:40;;;;;;;7.70;3.35;;;8.10;99.90;;;;;;5092985;28;20043;-81
2021/11/04 00:12:07;;;;;;;8.30;3.10;;;8.10;99.90;;;;;;5091448;28;20093;-82
2021/11/04 00:14:34;;;;;;;17.55;3.80;;;8.10;99.90;;;;;;5091951;28;20056;-77
2021/11/04 00:17:01;;;;;;;9.07;4.03;;;8.10;99.90;;;;;;5091115;28;20036;-81
2021/11/04 00:19:29;;;;;;;9.43;3.10;;;8.00;99.90;;;;;;5091666;28;20075;-81
2021/11/04 00:21:56;;;;;;;6.32;2.88;;;8.00;99.90;;;;;;5091428;28;20071;-81
2021/11/04 00:24:23;;;;;;;5.53;3.33;;;8.00;99.90;;;;;;5092600;28;20048;-80
2021/11/04 00:26:50;;;;;;;9.15;3.80;;;8.00;99.90;;;;;;5092679;28;20519;-74
2021/11/04 00:29:17;;;;;;;10.25;3.90;;;8.00;99.90;;;;;;5095811;28;20480;-79
2021/11/04 00:31:44;;;;;;;8.63;3.10;;;8.00;99.90;;;;;;5074083;28;20510;-81
2021/11/04 00:34:11;;;;;;;8.57;3.42;;;7.90;99.90;;;;;;5091415;28;20147;-79
2021/11/04 00:36:38;;;;;;;5.93;3.03;;;7.90;99.90;;;;;;5091141;28;20446;-82
2021/11/04 00:39:05;;;;;;;8.80;3.05;;;7.90;99.90;;;;;;5090131;28;20039;-80
2021/11/04 00:41:32;;;;;;;6.22;2.92;;;8.00;99.90;;;;;;5090433;28;20496;-81
2021/11/04 00:44:02;;;;;;;9.35;3.13;;;7.90;99.90;;;;;;5091657;28;20056;-81
2021/11/04 00:46:51;;;;;;;;;;;8.00;99.90;;;;;;5090388;28;20503;-81
2021/11/04 00:49:18;;;;;;;7.50;2.70;;;7.90;99.90;;;;;;5076849;28;20011;-82
2021/11/04 00:51:45;;;;;;;8.60;3.63;;;7.90;99.90;;;;;;5090341;28;20048;-81
2021/11/04 00:54:13;;;;;;;8.50;3.42;;;7.90;99.90;;;;;;5070431;28;20045;-80
2021/11/04 00:56:39;;;;;;;9.30;3.35;;;7.90;99.90;;;;;;5072788;28;20052;-81
2021/11/04 00:59:06;;;;;;;12.60;3.47;;;7.90;99.90;;;;;;5091173;28;20113;-79
2021/11/04 01:01:35;;;;;;;9.20;3.05;;;7.90;99.90;;;;;;5090753;28;20067;-79
2021/11/04 01:04:01;;;;;;;7.07;2.58;;;7.90;99.90;;;;;;5091121;28;20051;-81
2021/11/04 01:06:28;;;;;;;9.50;3.20;;;7.90;99.90;;;;;;5092231;28;20056;-81
2021/11/04 01:08:55;;;;;;;10.75;3.65;;;7.90;99.90;;;;;;5089480;28;20048;-76
2021/11/04 01:11:23;;;;;;;7.47;2.97;;;7.90;99.90;;;;;;5092581;28;20052;-80
2021/11/04 01:13:50;;;;;;;13.82;3.10;;;7.90;99.90;;;;;;5073087;28;20227;-75
2021/11/04 01:16:18;;;;;;;7.05;3.47;;;7.90;99.90;;;;;;5090629;28;20495;-82
2021/11/04 01:18:45;;;;;;;4.85;2.63;;;7.90;99.90;;;;;;5090784;28;20043;-76
2021/11/04 01:21:15;;;;;;;;;;;7.80;99.90;;;;;;5086039;28;20044;-80
2021/11/04 01:23:44;;;;;;;5.60;3.55;;;7.80;99.90;;;;;;5090737;28;20032;-80
2021/11/04 01:26:11;;;;;;;4.68;2.50;;;7.80;99.90;;;;;;5091279;28;20047;-80
2021/11/04 01:28:39;;;;;;;6.25;2.50;;;7.80;99.90;;;;;;5090285;28;20040;-82
2021/11/04 01:31:06;;;;;;;6.15;2.72;;;7.80;99.90;;;;;;5091111;28;20058;-82
2021/11/04 01:33:33;;;;;;;5.95;2.53;;;7.80;99.90;;;;;;5089118;28;20051;-81
2021/11/04 01:36:00;;;;;;;10.15;3.00;;;7.80;99.90;;;;;;5070427;28;20052;-81
2021/11/04 01:38:27;;;;;;;8.20;3.15;;;7.80;99.90;;;;;;5088489;28;20051;-82
2021/11/04 01:40:54;;;;;;;6.03;2.28;;;7.70;99.90;;;;;;5089634;28;20047;-79
2021/11/04 01:43:21;;;;;;;6.70;2.47;;;7.70;99.90;;;;;;5089189;28;20060;-81
2021/11/04 01:45:49;;;;;;;6.00;2.05;;;7.60;99.90;;;;;;5090220;28;20048;-80
2021/11/04 01:48:18;;;;;;;4.72;2.20;;;7.60;99.90;;;;;;5089288;28;20055;-79
2021/11/04 01:50:46;;;;;;;7.47;2.75;;;7.60;99.90;;;;;;5088365;28;20047;-81
2021/11/04 01:53:13;;;;;;;8.73;2.55;;;7.60;99.90;;;;;;5088146;28;20056;-75
2021/11/04 01:55:40;;;;;;;8.82;2.83;;;7.60;99.90;;;;;;5088605;28;20446;-82
2021/11/04 01:58:07;;;;;;;5.65;2.22;;;7.60;99.90;;;;;;5098970;28;20043;-81
2021/11/04 02:00:34;;;;;;;7.85;2.70;;;7.50;99.90;;;;;;5093941;28;20055;-82
2021/11/04 02:03:04;;;;;;;4.97;2.35;;;7.50;99.90;;;;;;5056303;28;20066;-80
2021/11/04 02:05:37;;;;;;;6.55;3.13;;;7.40;99.90;;;;;;5090150;28;20201;-79
2021/11/04 02:08:08;;;;;;;9.18;2.88;;;7.30;99.90;;;;;;5090495;28;20487;-78
2021/11/04 02:10:48;;;;;;;9.15;2.53;;;7.40;99.90;;;;;;5071999;28;20048;-80
2021/11/04 02:13:34;;;;;;;7.70;2.58;;;7.40;99.90;;;;;;5089168;28;20120;-79
2021/11/04 02:16:02;;;;;;;7.07;2.40;;;7.40;99.90;;;;;;5088594;28;20040;-81
2021/11/04 02:18:31;;;;;;;5.40;2.45;;;7.30;99.90;;;;;;5088781;28;20040;-78
2021/11/04 02:21:21;;;;;;;4.78;2.20;;;7.30;99.90;;;;;;5072265;28;20055;-80
2021/11/04 02:23:53;;;;;;;5.07;2.47;;;7.30;99.90;;;;;;5045129;28;20480;-79
2021/11/04 02:26:20;;;;;;;5.78;2.70;;;7.30;99.90;;;;;;5086538;28;20051;-80
2021/11/04 02:28:47;;;;;;;9.32;2.20;;;7.30;99.90;;;;;;5073125;28;20056;-82
2021/11/04 02:31:14;;;;;;;5.35;1.95;;;7.30;99.90;;;;;;5072316;28;20044;-81
2021/11/04 02:33:41;;;;;;;5.97;2.47;;;7.30;99.90;;;;;;5071877;28;20048;-84
2021/11/04 02:36:08;;;;;;;7.10;2.85;;;7.30;99.90;;;;;;5072359;28;20105;-82
2021/11/04 02:38:36;;;;;;;12.13;2.63;;;7.30;99.90;;;;;;5088338;28;20056;-82
2021/11/04 02:41:04;;;;;;;7.03;2.83;;;7.40;99.90;;;;;;5088835;28;20139;-80
2021/11/04 02:43:32;;;;;;;5.40;2.97;;;7.40;99.90;;;;;;5065375;28;20068;-81
2021/11/04 02:45:59;;;;;;;4.32;2.40;;;7.40;99.90;;;;;;5088391;28;20064;-80
2021/11/04 02:48:28;;;;;;;6.35;2.30;;;7.40;99.90;;;;;;5087833;28;20052;-81
2021/11/04 02:50:54;;;;;;;4.70;2.20;;;7.40;99.90;;;;;;5088288;28;20404;-80
2021/11/04 02:53:23;;;;;;;10.20;3.00;;;7.40;99.90;;;;;;5088562;28;20056;-80
2021/11/04 02:55:51;;;;;;;4.80;2.23;;;7.40;99.90;;;;;;5088051;28;20743;-81
2021/11/04 02:58:18;;;;;;;8.50;3.05;;;7.40;99.90;;;;;;5072191;28;20124;-82
2021/11/04 03:00:50;;;;;;;7.07;3.20;;;7.50;99.90;;;;;;5088283;28;20047;-82
2021/11/04 03:03:18;;;;;;;7.32;3.05;;;7.50;99.90;;;;;;5089730;28;20044;-83
2021/11/04 03:05:45;;;;;;;4.47;2.70;;;7.50;99.90;;;;;;5081126;28;20040;-81
2021/11/04 03:08:12;;;;;;;6.40;2.83;;;7.50;99.90;;;;;;5093068;28;20044;-82
2021/11/04 03:10:39;;;;;;;5.10;2.47;;;7.40;99.90;;;;;;5075908;28;20049;-81
2021/11/04 03:13:06;;;;;;;13.98;3.28;;;7.50;99.90;;;;;;5093589;28;20105;-81
2021/11/04 03:15:39;;;;;;;5.35;2.22;;;7.40;99.90;;;;;;5093362;28;20400;-80
2021/11/04 03:18:06;;;;;;;5.05;2.90;;;7.50;99.90;;;;;;5093637;28;20495;-81
2021/11/04 03:20:34;;;;;;;5.20;2.40;;;7.40;99.90;;;;;;5087558;28;20399;-81
2021/11/04 03:23:02;;;;;;;5.88;2.50;;;7.40;99.90;;;;;;5092434;28;20056;-75
2021/11/04 03:25:29;;;;;;;9.35;2.78;;;7.40;99.90;;;;;;5091567;28;20056;-82
2021/11/04 03:27:57;;;;;;;3.85;1.77;;;7.40;99.90;;;;;;5092685;28;20051;-83
2021/11/04 03:30:25;;;;;;;6.38;2.72;;;7.40;99.90;;;;;;5091227;28;20553;-81
2021/11/04 03:32:52;;;;;;;4.53;1.95;;;7.40;99.90;;;;;;5075046;28;20388;-83
2021/11/04 03:35:20;;;;;;;7.53;2.10;;;7.40;99.90;;;;;;5093392;28;20050;-82
2021/11/04 03:37:50;;;;;;;3.88;2.00;;;7.40;99.90;;;;;;5091922;28;20189;-81
2021/11/04 03:40:17;;;;;;;6.70;2.00;;;7.50;99.90;;;;;;5093199;28;20048;-81
2021/11/04 03:42:44;;;;;;;4.30;1.80;;;7.40;99.90;;;;;;5093525;28;20055;-81
2021/11/04 03:45:12;;;;;;;11.38;4.57;;;7.40;99.90;;;;;;5102187;28;20056;-81
2021/11/04 03:47:39;;;;;;;6.18;1.75;;;7.40;99.90;;;;;;5078854;28;20466;-82
2021/11/04 03:50:06;;;;;;;4.82;2.03;;;7.40;99.90;;;;;;5073887;28;20044;-83
2021/11/04 03:52:33;;;;;;;10.02;1.95;;;7.40;99.90;;;;;;5093536;28;20048;-79
2021/11/04 03:55:00;;;;;;;4.20;1.90;;;7.50;99.90;;;;;;5091658;28;20052;-79
2021/11/04 03:57:29;;;;;;;6.28;1.60;;;7.40;99.90;;;;;;5091794;28;20075;-81
2021/11/04 03:59:56;;;;;;;4.13;1.70;;;7.40;99.80;;;;;;5092663;28;20499;-82
2021/11/04 04:02:24;;;;;;;4.70;1.80;;;7.40;99.90;;;;;;5091468;28;20048;-83
2021/11/04 04:04:52;;;;;;;3.80;1.48;;;7.40;99.90;;;;;;5091327;28;20047;-78
2021/11/04 04:07:19;;;;;;;3.05;1.67;;;7.50;99.80;;;;;;5092177;28;20051;-81
2021/11/04 04:09:46;;;;;;;3.15;1.40;;;7.40;99.80;;;;;;5091210;28;20044;-79
2021/11/04 04:12:13;;;;;;;2.88;1.48;;;7.40;99.60;;;;;;5091447;28;20089;-79
2021/11/04 04:14:40;;;;;;;6.00;1.80;;;7.40;99.40;;;;;;5092167;28;20455;-81
2021/11/04 04:17:08;;;;;;;6.03;1.38;;;7.40;99.90;;;;;;5090801;28;20380;-81
2021/11/04 04:19:35;;;;;;;3.70;1.40;;;7.40;99.90;;;;;;5091536;28;20082;-79
2021/11/04 04:22:02;;;;;;;2.60;1.33;;;7.40;99.10;;;;;;5092968;28;20051;-79
2021/11/04 04:24:31;;;;;;;4.00;1.90;;;7.40;99.20;;;;;;5090178;28;20058;-81
2021/11/04 04:27:00;;;;;;;5.38;1.85;;;7.40;99.10;;;;;;5090448;28;20349;-81
2021/11/04 04:29:27;;;;;;;5.82;2.20;;;7.40;99.90;;;;;;5095041;28;20048;-82
2021/11/04 04:31:54;;;;;;;1.90;1.15;;;7.40;99.70;;;;;;5074213;28;20063;-81
2021/11/04 04:34:21;;;;;;;22.13;15.65;;;7.40;99.20;;;;;;5090958;28;20406;-77
2021/11/04 04:36:48;;;;;;;20.73;12.95;;;7.50;99.20;;;;;;5073036;28;20055;-81
2021/11/04 04:39:15;;;;;;;7.82;2.05;;;7.50;98.60;;;;;;5092043;28;20044;-77
2021/11/04 04:41:42;;;;;;;9.15;1.88;;;7.50;98.90;;;;;;5090570;28;20449;-79
2021/11/04 04:44:09;;;;;;;3.15;1.50;;;7.50;98.70;;;;;;5091370;28;20039;-78
2021/11/04 04:46:36;;;;;;;2.83;1.50;;;7.50;98.70;;;;;;5089363;28;20052;-79
2021/11/04 04:49:03;;;;;;;3.90;1.13;;;7.40;99.10;;;;;;5092272;28;20058;-78
2021/11/04 04:51:30;;;;;;;5.88;1.30;;;7.40;99.40;;;;;;5090410;28;20097;-80
2021/11/04 04:53:57;;;;;;;2.50;1.30;;;7.40;98.70;;;;;;5090858;28;20107;-79
2021/11/04 04:56:24;;;;;;;5.55;1.42;;;7.40;98.80;;;;;;5090252;28;20052;-76
2021/11/04 04:58:51;;;;;;;6.20;1.40;;;7.50;98.60;;;;;;5095934;28;20043;-76
2021/11/04 05:01:18;;;;;;;3.10;1.33;;;7.50;98.80;;;;;;5090689;28;20052;-78
2021/11/04 05:03:44;;;;;;;3.22;1.30;;;7.50;98.80;;;;;;5071153;28;20071;-78
2021/11/04 05:06:11;;;;;;;2.75;1.23;;;7.50;98.40;;;;;;5091196;28;20052;-78
2021/11/04 05:08:38;;;;;;;3.70;1.17;;;7.50;98.40;;;;;;5090379;28;20553;-79
2021/11/04 05:11:05;;;;;;;2.92;1.30;;;7.50;98.40;;;;;;5070272;28;20055;-79
2021/11/04 05:13:32;;;;;;;3.75;1.30;;;7.50;98.60;;;;;;5073730;28;20507;-76
2021/11/04 05:16:00;;;;;;;3.25;1.20;;;7.50;98.50;;;;;;5089691;28;20511;-71
2021/11/04 05:18:27;;;;;;;1.40;0.80;;;7.50;98.60;;;;;;5091309;28;20048;-77
2021/11/04 05:20:53;;;;;;;4.20;1.80;;;7.50;98.10;;;;;;5090022;28;20098;-79
2021/11/04 05:23:21;;;;;;;4.78;1.50;;;7.50;98.20;;;;;;5091268;28;20044;-79
2021/11/04 05:25:48;;;;;;;4.43;1.92;;;7.50;98.40;;;;;;5091976;28;20491;-75
2021/11/04 05:28:15;;;;;;;7.95;1.35;;;7.50;98.10;;;;;;5093330;28;20040;-77
2021/11/04 05:30:42;;;;;;;3.83;1.35;;;7.50;98.40;;;;;;5072813;28;20056;-78
2021/11/04 05:33:10;;;;;;;3.25;1.48;;;7.50;98.10;;;;;;5089513;28;20052;-79
2021/11/04 05:35:37;;;;;;;4.85;1.40;;;7.50;98.00;;;;;;5089897;28;20051;-79
2021/11/04 05:38:03;;;;;;;3.40;1.33;;;7.50;98.20;;;;;;5091987;28;20108;-79
2021/11/04 05:40:33;;;;;;;2.80;1.58;;;7.50;97.60;;;;;;5089225;28;20171;-77
2021/11/04 05:43:00;;;;;;;3.70;2.28;;;7.50;97.90;;;;;;5089512;28;20065;-78
2021/11/04 05:45:27;;;;;;;6.38;1.60;;;7.50;97.70;;;;;;5091081;28;20044;-78
2021/11/04 05:47:54;;;;;;;2.53;1.38;;;7.50;97.90;;;;;;5090094;28;20048;-79
2021/11/04 05:50:21;;;;;;;3.03;1.55;;;7.50;97.70;;;;;;5090700;28;20503;-79
2021/11/04 05:52:49;;;;;;;5.20;2.80;;;7.40;97.70;;;;;;5072420;28;20093;-78
2021/11/04 05:55:16;;;;;;;4.32;1.75;;;7.50;97.60;;;;;;5089807;28;20058;-80
2021/11/04 05:57:43;;;;;;;2.28;1.35;;;7.40;97.60;;;;;;5072671;28;20554;-78
2021/11/04 06:00:10;;;;;;;3.03;1.55;;;7.40;98.00;;;;;;5088858;28;20036;-80
2021/11/04 06:02:38;;;;;;;2.55;1.65;;;7.40;97.80;;;;;;5072170;28;20136;-78
2021/11/04 06:05:05;;;;;;;5.35;1.80;;;7.40;98.00;;;;;;5090203;28;20499;-80
2021/11/04 06:07:32;;;;;;;3.60;1.73;;;7.40;98.40;;;;;;5090280;28;20040;-76
2021/11/04 06:09:59;;;;;;;3.78;1.95;;;7.40;99.20;;;;;;5071617;28;20074;-73
2021/11/04 06:12:26;;;;;;;6.32;2.20;;;7.40;98.50;;;;;;5089196;28;20097;-77
2021/11/04 06:14:53;;;;;;;5.88;1.65;;;7.40;98.80;;;;;;5089468;28;20048;-78
2021/11/04 06:17:20;;;;;;;2.92;2.25;;;7.40;98.70;;;;;;5093732;28;20504;-77
2021/11/04 06:19:47;;;;;;;3.63;2.20;;;7.30;98.30;;;;;;5090477;28;20481;-79
2021/11/04 06:22:14;;;;;;;3.55;2.33;;;7.30;98.80;;;;;;5070250;28;20047;-76
2021/11/04 06:24:41;;;;;;;3.17;1.60;;;7.30;98.40;;;;;;5089005;28;20040;-79
2021/11/04 06:27:07;;;;;;;4.57;1.70;;;7.30;98.60;;;;;;5089559;28;20092;-78
2021/11/04 06:29:34;;;;;;;4.85;2.15;;;7.30;99.00;;;;;;5106476;28;20052;-80
2021/11/04 06:32:01;;;;;;;4.10;2.00;;;7.30;98.90;;;;;;5089712;28;20067;-79
2021/11/04 06:34:28;;;;;;;5.43;3.40;;;7.30;98.50;;;;;;5087941;28;20067;-78
2021/11/04 06:36:55;;;;;;;4.07;2.15;;;7.30;98.70;;;;;;5090208;28;20044;-78
2021/11/04 06:39:22;;;;;;;4.07;2.20;;;7.30;98.90;;;;;;5089573;28;20043;-79
2021/11/04 06:41:49;;;;;;;89.15;62.30;;;7.40;98.90;;;;;;5087936;28;20106;-77
2021/11/04 06:44:16;;;;;;;88.50;56.88;;;7.40;99.00;;;;;;5089153;28;20109;-76
2021/11/04 06:46:44;;;;;;;6.38;3.35;;;7.40;99.40;;;;;;5086698;28;20408;-78
2021/11/04 06:49:12;;;;;;;5.75;2.47;;;7.40;99.00;;;;;;5071948;28;20048;-78
2021/11/04 06:51:42;;;;;;;5.53;2.40;;;7.30;99.10;;;;;;5087711;28;20052;-82
2021/11/04 06:54:11;;;;;;;3.50;2.20;;;7.30;99.90;;;;;;5088308;28;20515;-74
2021/11/04 06:56:41;;;;;;;4.43;2.30;;;7.40;99.90;;;;;;5088013;28;20131;-75
2021/11/04 06:59:22;;;;;;;3.60;2.10;;;7.30;99.00;;;;;;5090971;28;20048;-74
2021/11/04 07:01:57;;;;;;;4.32;1.70;;;7.30;98.00;;;;;;5079581;28;20373;-75
2021/11/04 07:04:36;;;;;;;34.33;21.10;;;7.30;98.80;;;;;;5083796;28;20052;-78
2021/11/04 07:09:35;;;;;;;3.90;2.15;;;7.30;99.00;;;;;;5087680;28;20281;-75
2021/11/04 07:12:02;;;;;;;3.30;2.03;;;7.30;99.70;;;;;;5087993;28;20047;-74
2021/11/04 07:14:31;;;;;;;4.32;2.17;;;7.20;99.50;;;;;;5088013;28;20048;-77
2021/11/04 07:16:59;;;;;;;4.78;2.10;;;7.20;99.30;;;;;;5086983;28;20877;-73
2021/11/04 07:19:26;;;;;;;7.63;2.72;;;7.20;99.80;;;;;;5094553;28;20123;-78
2021/11/04 07:22:31;;;;;;;4.00;2.33;;;7.20;99.10;;;;;;5071541;28;20411;-77
2021/11/04 07:25:09;;;;;;;4.35;2.50;;;7.20;99.90;;;;;;5084274;28;20052;-73
2021/11/04 07:27:37;;;;;;;5.03;2.97;;;7.20;99.70;;;;;;5087763;28;20092;-80
2021/11/04 07:30:08;;;;;;;4.38;2.80;;;7.20;99.40;;;;;;5087822;28;20048;-75
2021/11/04 07:32:56;;;;;;;4.07;2.97;;;7.30;99.80;;;;;;5087072;28;20044;-77
2021/11/04 07:35:35;;;;;;;3.92;2.72;;;7.30;99.30;;;;;;5088274;28;20508;-81
2021/11/04 07:38:05;;;;;;;6.60;2.90;;;7.30;99.40;;;;;;5083364;28;20485;-82
2021/11/04 07:40:32;;;;;;;5.40;2.83;;;7.30;99.80;;;;;;5086644;28;20044;-75
2021/11/04 07:42:59;;;;;;;4.18;2.85;;;7.40;99.40;;;;;;5067918;28;20496;-72
2021/11/04 07:45:27;;;;;;;3.88;2.63;;;7.40;99.90;;;;;;5087180;28;20056;-75
2021/11/04 07:47:54;;;;;;;5.25;2.55;;;7.40;99.60;;;;;;5087279;28;20123;-75
2021/11/04 07:50:23;;;;;;;3.80;2.70;;;7.40;99.20;;;;;;5087672;28;20406;-76
2021/11/04 07:52:50;;;;;;;7.00;3.08;;;7.40;99.10;;;;;;5087319;28;20044;-76
2021/11/04 07:55:17;;;;;;;3.05;2.20;;;7.40;99.60;;;;;;5092695;28;20040;-75
2021/11/04 07:57:44;;;;;;;6.18;3.38;;;7.40;99.40;;;;;;5097083;28;20406;-75
2021/11/04 08:00:13;;;;;;;5.90;2.80;;;7.40;99.80;;;;;;5091886;28;20480;-75
2021/11/04 08:02:40;;;;;;;6.32;2.50;;;7.50;99.80;;;;;;5090793;28;20480;-75
2021/11/04 08:05:08;;;;;;;5.45;2.40;;;7.50;99.60;;;;;;5074382;28;20044;-75
2021/11/04 08:07:36;;;;;;;4.55;2.97;;;7.60;99.30;;;;;;5091852;28;20093;-84
2021/11/04 08:10:05;;;;;;;5.50;2.65;;;7.60;99.40;;;;;;5091566;28;20145;-80
2021/11/04 08:12:33;;;;;;;4.32;2.25;;;7.60;99.00;;;;;;5086507;28;20047;-78
2021/11/04 08:15:01;;;;;;;14.02;10.80;;;7.60;99.10;;;;;;5090910;28;20036;-75
2021/11/04 08:17:28;;;;;;;9.68;7.05;;;7.60;99.70;;;;;;5091727;28;20399;-79
2021/11/04 08:19:55;;;;;;;44.17;24.83;;;7.70;99.70;;;;;;5091184;28;20399;-77
2021/11/04 08:22:25;;;;;;;7.35;3.38;;;7.70;99.80;;;;;;5091183;28;20054;-79
2021/11/04 08:24:52;;;;;;;5.70;2.65;;;7.70;99.90;;;;;;5091973;28;20048;-79
2021/11/04 08:27:20;;;;;;;8.13;3.22;;;7.70;99.90;;;;;;5092250;28;20044;-77
2021/11/04 08:29:47;;;;;;;5.32;2.65;;;7.70;99.50;;;;;;5091566;28;20036;-78
2021/11/04 08:32:14;;;;;;;3.28;2.42;;;7.70;99.50;;;;;;5091798;28;20135;-74
2021/11/04 08:34:41;;;;;;;5.18;2.75;;;7.70;99.60;;;;;;5069640;28;20044;-72
2021/11/04 08:37:12;;;;;;;5.75;2.78;;;7.70;99.30;;;;;;5091226;28;20040;-74
2021/11/04 08:39:39;;;;;;;5.90;2.50;;;7.80;99.50;;;;;;5091590;28;20040;-74
2021/11/04 08:42:06;;;;;;;47.00;26.95;;;7.80;99.90;;;;;;5091637;28;20048;-70
2021/11/04 08:44:33;;;;;;;4.85;3.60;;;7.80;99.50;;;;;;5070374;28;20071;-73
2021/11/04 08:47:01;;;;;;;3.83;2.40;;;7.90;99.30;;;;;;5089429;28;20056;-74
2021/11/04 08:49:29;;;;;;;3.50;2.50;;;7.90;99.40;;;;;;5070674;28;20058;-73
2021/11/04 08:51:56;;;;;;;4.68;2.53;;;7.90;99.80;;;;;;5074845;28;20044;-72
2021/11/04 08:54:23;;;;;;;5.03;2.38;;;7.90;99.70;;;;;;5073274;28;20048;-74
2021/11/04 08:56:51;;;;;;;4.90;2.30;;;7.90;99.80;;;;;;5080220;28;20137;-75
2021/11/04 08:59:18;;;;;;;5.80;2.92;;;7.90;99.30;;;;;;5080501;28;20052;-74
2021/11/04 09:01:45;;;;;;;5.63;2.33;;;7.90;99.90;;;;;;5091409;28;20048;-80
2021/11/04 09:04:17;;;;;;;8.80;2.13;;;7.90;99.30;;;;;;5074006;28;20048;-75
2021/11/04 09:06:44;;;;;;;4.93;2.50;;;8.00;99.50;;;;;;5090176;28;20071;-76
2021/11/04 09:09:11;;;;;;;4.90;2.40;;;7.90;99.30;;;;;;5090694;28;20129;-77
2021/11/04 09:11:38;;;;;;;5.40;2.67;;;8.00;99.20;;;;;;5089023;28;20062;-79
2021/11/04 09:14:10;;;;;;;6.45;2.45;;;8.00;99.40;;;;;;5091304;28;20131;-78
2021/11/04 09:16:38;;;;;;;4.50;2.20;;;8.10;99.50;;;;;;5090022;28;20040;-75
2021/11/04 09:19:05;;;;;;;4.63;2.70;;;8.20;99.20;;;;;;5089618;28;20469;-81
2021/11/04 09:21:32;;;;;;;6.35;3.17;;;8.20;99.20;;;;;;5089781;28;20052;-81
2021/11/04 09:24:00;;;;;;;6.50;2.95;;;8.30;99.50;;;;;;5091175;28;20055;-82
2021/11/04 09:26:27;;;;;;;4.15;2.10;;;8.30;99.10;;;;;;5091718;28;20048;-83
2021/11/04 09:28:54;;;;;;;7.78;3.28;;;8.30;98.90;;;;;;5087878;28;20055;-82
2021/11/04 09:31:21;;;;;;;4.75;2.45;;;8.30;99.60;;;;;;5099441;28;20063;-83
2021/11/04 09:33:48;;;;;;;4.38;2.35;;;8.30;99.90;;;;;;5089943;28;20450;-82
2021/11/04 09:36:14;;;;;;;5.80;2.25;;;8.40;99.00;;;;;;5091408;28;20044;-80
2021/11/04 09:38:43;;;;;;;4.70;2.28;;;8.40;98.80;;;;;;5092430;28;20048;-83
2021/11/04 09:41:11;;;;;;;4.30;2.60;;;8.40;98.70;;;;;;5090821;28;20051;-80
2021/11/04 09:43:38;;;;;;;4.57;2.42;;;8.40;98.40;;;;;;5090670;28;20139;-83
2021/11/04 09:46:05;;;;;;;6.38;2.78;;;8.60;99.40;;;;;;5091021;28;20047;-83
2021/11/04 09:48:35;;;;;;;5.40;2.47;;;8.60;98.30;;;;;;5092176;28;20055;-81
2021/11/04 09:51:03;;;;;;;5.05;2.17;;;8.60;97.70;;;;;;5092358;28;20460;-83
2021/11/04 09:53:30;;;;;;;6.22;2.42;;;8.70;97.90;;;;;;5090810;28;20513;-83
2021/11/04 09:55:59;;;;;;;4.72;2.15;;;8.70;98.10;;;;;;5092035;28;20055;-75
2021/11/04 09:58:26;;;;;;;5.10;1.93;;;8.70;98.00;;;;;;5100298;28;20079;-82
2021/11/04 10:00:53;;;;;;;4.13;2.85;;;8.70;97.80;;;;;;5112493;28;20324;-75
2021/11/04 10:03:20;;;;;;;5.82;2.13;;;8.70;98.10;;;;;;5093094;28;20047;-81
2021/11/04 10:05:51;;;;;;;3.53;1.55;;;8.70;98.10;;;;;;5111710;28;20048;-81
2021/11/04 10:08:39;;;;;;;5.28;2.33;;;8.60;98.20;;;;;;5079795;28;20046;-79
2021/11/04 10:11:11;;;;;;;5.55;2.50;;;8.70;98.40;;;;;;5088100;28;20157;-79
2021/11/04 10:13:41;;;;;;;4.60;2.13;;;8.80;98.40;;;;;;5088158;28;20044;-77
2021/11/04 10:16:09;;;;;;;3.35;1.90;;;8.80;98.30;;;;;;5087208;28;20096;-81
2021/11/04 10:18:48;;;;;;;6.07;2.35;;;8.80;98.30;;;;;;5081696;28;20097;-79
2021/11/04 10:21:36;;;;;;;2.75;1.88;;;8.80;98.10;;;;;;5054659;28;20040;-77
2021/11/04 10:24:04;;;;;;;3.90;1.98;;;8.80;98.30;;;;;;5069382;28;20056;-80
2021/11/04 10:26:36;;;;;;;5.97;2.50;;;8.90;97.70;;;;;;5069398;28;20048;-82
2021/11/04 10:29:05;;;;;;;6.57;1.80;;;8.90;98.20;;;;;;5100623;28;20080;-80
2021/11/04 10:31:48;;;;;;;4.85;2.53;;;8.90;98.20;;;;;;5100251;28;20040;-77
2021/11/04 10:34:30;;;;;;;5.70;1.75;;;9.00;98.10;;;;;;5090436;28;20083;-76
2021/11/04 10:37:16;;;;;;;3.72;2.53;;;9.00;97.70;;;;;;5088612;28;20506;-76
2021/11/04 10:39:43;;;;;;;5.85;2.30;;;9.00;98.30;;;;;;5075847;28;20044;-80
2021/11/04 10:42:11;;;;;;;4.47;2.25;;;9.00;97.80;;;;;;5091003;28;20063;-80
2021/11/04 10:44:38;;;;;;;4.20;1.98;;;8.90;98.30;;;;;;5089013;28;20056;-79
2021/11/04 10:47:05;;;;;;;6.30;3.25;;;8.90;98.50;;;;;;5089644;28;20059;-79
2021/11/04 10:49:50;;;;;;;5.22;2.28;;;8.90;98.40;;;;;;5088999;28;20048;-79
2021/11/04 10:52:24;;;;;;;5.13;2.50;;;8.90;99.00;;;;;;5090332;28;20436;-79
2021/11/04 10:54:52;;;;;;;12.15;2.72;;;9.00;98.10;;;;;;5090214;28;20465;-78
2021/11/04 10:57:39;;;;;;;7.70;2.95;;;9.00;98.30;;;;;;5089721;28;20074;-82
2021/11/04 11:00:20;;;;;;;5.47;2.50;;;9.10;97.60;;;;;;5109313;28;20055;-80
2021/11/04 11:03:11;;;;;;;6.00;2.22;;;9.10;97.60;;;;;;5108964;28;20093;-81
2021/11/04 11:05:39;;;;;;;7.80;2.85;;;9.20;97.50;;;;;;5110758;28;20378;-80
2021/11/04 11:08:06;;;;;;;6.32;2.33;;;9.30;97.50;;;;;;5085846;28;20368;-80
2021/11/04 11:10:37;;;;;;;4.82;2.05;;;9.30;97.40;;;;;;5089355;28;20051;-80
2021/11/04 11:13:05;;;;;;;5.35;2.50;;;9.30;96.70;;;;;;5089326;28;20096;-81
2021/11/04 11:15:33;;;;;;;5.80;2.53;;;9.30;96.30;;;;;;5087894;28;20056;-79
2021/11/04 11:18:06;;;;;;;16.30;9.23;;;9.30;97.50;;;;;;5071264;28;20056;-79
2021/11/04 11:20:33;;;;;;;44.08;36.40;;;9.30;97.30;;;;;;5088962;28;20052;-77
2021/11/04 11:23:02;;;;;;;10.88;6.90;;;9.30;96.50;;;;;;5095459;28;20122;-77
2021/11/04 11:25:35;;;;;;;10.70;3.92;;;9.30;97.20;;;;;;5090898;28;20058;-77
2021/11/04 11:28:03;;;;;;;9.25;2.17;;;9.30;96.80;;;;;;5099752;28;20491;-78
2021/11/04 11:30:30;;;;;;;6.32;2.30;;;9.40;96.80;;;;;;5072604;28;20161;-78
2021/11/04 11:33:25;;;;;;;10.10;2.83;;;9.30;96.80;;;;;;5071437;28;20059;-78
2021/11/04 11:36:20;;;;;;;7.70;2.92;;;9.20;96.90;;;;;;5072614;28;20054;-78
2021/11/04 11:38:59;;;;;;;4.72;2.45;;;9.30;97.50;;;;;;5070552;28;20044;-78
2021/11/04 11:41:30;;;;;;;7.60;3.10;;;9.20;97.00;;;;;;5094051;28;20051;-75
2021/11/04 11:44:06;;;;;;;24.08;19.38;;;9.20;97.20;;;;;;5074921;28;20051;-72
2021/11/04 11:47:05;;;;;;;11.73;6.70;;;9.30;97.10;;;;;;5102175;28;20051;-70
2021/11/04 11:49:32;;;;;;;6.78;3.33;;;9.30;96.60;;;;;;5092632;28;20044;-71
2021/11/04 11:51:59;;;;;;;7.65;2.50;;;9.30;96.90;;;;;;5094139;28;20044;-75
2021/11/04 11:54:49;;;;;;;7.47;2.42;;;9.20;95.70;;;;;;5091836;28;20423;-74
2021/11/04 11:57:16;;;;;;;5.43;2.30;;;9.30;96.60;;;;;;5096582;28;20134;-72
2021/11/04 11:59:54;;;;;;;7.68;3.63;;;9.30;95.60;;;;;;5101868;28;20092;-69
2021/11/04 12:02:37;;;;;;;5.63;2.47;;;9.40;96.30;;;;;;5057832;28;20092;-69
2021/11/04 12:05:27;;;;;;;5.75;3.47;;;9.40;96.20;;;;;;5092474;28;20107;-76
2021/11/04 12:08:19;;;;;;;8.63;3.03;;;9.40;95.10;;;;;;5093005;28;20368;-77
2021/11/04 12:10:47;;;;;;;9.40;2.70;;;9.40;95.90;;;;;;5080707;28;20213;-74
2021/11/04 12:13:32;;;;;;;10.20;2.50;;;9.40;94.70;;;;;;5074375;28;20044;-74
2021/11/04 12:16:12;;;;;;;8.10;2.72;;;9.50;95.80;;;;;;5091583;28;20390;-74
2021/11/04 12:19:02;;;;;;;5.32;3.40;;;9.50;94.90;;;;;;5091776;28;20067;-74
2021/11/04 12:21:35;;;;;;;8.53;3.27;;;9.50;95.30;;;;;;5091020;28;20047;-76
2021/11/04 12:24:03;;;;;;;15.55;2.70;;;9.50;95.00;;;;;;5092625;28;20044;-85
2021/11/04 12:26:35;;;;;;;7.93;2.85;;;9.50;95.10;;;;;;5100597;28;20048;-82
2021/11/04 12:29:03;;;;;;;8.93;2.60;;;9.50;94.70;;;;;;5098031;28;20051;-81
2021/11/04 12:31:30;;;;;;;7.68;2.88;;;9.40;95.50;;;;;;5091603;28;20047;-80
2021/11/04 12:33:57;;;;;;;6.57;2.50;;;9.40;95.50;;;;;;5091079;28;20088;-77
2021/11/04 12:36:43;;;;;;;5.82;2.40;;;9.40;94.70;;;;;;5092929;28;20063;-79
2021/11/04 12:39:25;;;;;;;7.38;2.58;;;9.40;95.00;;;;;;5075351;28;20435;-80
2021/11/04 12:41:55;;;;;;;6.68;2.72;;;9.50;94.80;;;;;;5092295;28;20142;-79
2021/11/04 12:44:23;;;;;;;7.20;2.70;;;9.50;94.90;;;;;;5109067;28;20497;-74
2021/11/04 12:46:50;;;;;;;77.38;50.20;;;9.40;94.30;;;;;;5093376;28;20052;-87
2021/11/04 12:49:29;;;;;;;6.38;3.17;;;9.50;94.30;;;;;;5086450;28;20135;-79
2021/11/04 12:51:57;;;;;;;7.28;2.25;;;9.40;94.10;;;;;;5075259;28;20058;-77
2021/11/04 12:54:25;;;;;;;6.30;2.13;;;9.40;94.70;;;;;;5096451;28;20044;-78
2021/11/04 12:56:58;;;;;;;8.85;2.92;;;9.50;94.80;;;;;;5100009;28;20058;-78
2021/11/04 12:59:39;;;;;;;9.63;2.80;;;9.50;94.50;;;;;;5109046;28;20129;-82
2021/11/04 13:02:14;;;;;;;7.30;2.53;;;9.50;94.50;;;;;;5096370;28;20055;-83
2021/11/04 13:05:01;;;;;;;8.10;2.45;;;9.50;93.60;;;;;;5094835;28;20048;-79
2021/11/04 13:07:29;;;;;;;10.23;3.33;;;9.40;93.90;;;;;;5090853;28;20067;-82
2021/11/04 13:09:57;;;;;;;6.70;2.50;;;9.40;94.60;;;;;;5092355;28;20063;-77
2021/11/04 13:12:37;;;;;;;7.78;2.67;;;9.50;94.00;;;;;;5099300;28;20047;-85